sensor_id;sensor_type;location;lat;lon;timestamp;pressure;altitude;pressure_sealevel;temperature;humidity
11499;BME280;5806;48.748;9.278;2023-05-02T00:02:10;101280.34;;;10.33;79.25
11499;BME280;5806;48.748;9.278;2023-05-02T00:04:39;101281.12;;;10.13;79.80
11499;BME280;5806;48.748;9.278;2023-05-02T00:07:06;101277.53;;;10.31;79.29
11499;BME280;5806;48.748;9.278;2023-05-02T00:09:34;101283.18;;;10.45;78.59
11499;BME280;5806;48.748;9.278;2023-05-02T00:12:01;101277.72;;;10.36;78.72
11499;BME280;5806;48.748;9.278;2023-05-02T00:14:29;101281.12;;;10.31;78.67
11499;BME280;5806;48.748;9.278;2023-05-02T00:16:57;101277.09;;;10.25;79.46
11499;BME280;5806;48.748;9.278;2023-05-02T00:19:25;101284.30;;;10.19;79.84
11499;BME280;5806;48.748;9.278;2023-05-02T00:21:53;101269.56;;;10.20;79.87
11499;BME280;5806;48.748;9.278;2023-05-02T00:24:20;101278.45;;;10.16;79.49
11499;BME280;5806;48.748;9.278;2023-05-02T00:26:48;101281.41;;;10.14;79.63
11499;BME280;5806;48.748;9.278;2023-05-02T00:29:17;101278.38;;;10.13;79.26
11499;BME280;5806;48.748;9.278;2023-05-02T00:31:44;101284.85;;;10.28;78.80
11499;BME280;5806;48.748;9.278;2023-05-02T00:34:11;101283.11;;;10.42;77.66
11499;BME280;5806;48.748;9.278;2023-05-02T00:36:39;101279.98;;;10.21;78.48
11499;BME280;5806;48.748;9.278;2023-05-02T00:39:06;101289.39;;;10.25;78.33
11499;BME280;5806;48.748;9.278;2023-05-02T00:41:34;101295.89;;;10.14;78.47
11499;BME280;5806;48.748;9.278;2023-05-02T00:44:02;101287.25;;;10.18;78.52
11499;BME280;5806;48.748;9.278;2023-05-02T00:46:30;101291.42;;;10.11;78.42
11499;BME280;5806;48.748;9.278;2023-05-02T00:48:57;101295.89;;;10.05;78.61
11499;BME280;5806;48.748;9.278;2023-05-02T00:51:26;101292.27;;;10.12;78.45
11499;BME280;5806;48.748;9.278;2023-05-02T00:53:54;101303.35;;;10.08;78.55
11499;BME280;5806;48.748;9.278;2023-05-02T00:56:23;101307.45;;;10.08;78.75
11499;BME280;5806;48.748;9.278;2023-05-02T00:58:50;101310.42;;;10.24;77.94
11499;BME280;5806;48.748;9.278;2023-05-02T01:04:20;101319.39;;;10.22;78.52
11499;BME280;5806;48.748;9.278;2023-05-02T01:12:46;101321.61;;;10.32;78.60
11499;BME280;5806;48.748;9.278;2023-05-02T01:15:16;101321.69;;;10.25;78.36
11499;BME280;5806;48.748;9.278;2023-05-02T01:17:45;101320.31;;;10.25;79.15
11499;BME280;5806;48.748;9.278;2023-05-02T01:20:16;101324.20;;;10.36;78.81
11499;BME280;5806;48.748;9.278;2023-05-02T01:22:46;101332.98;;;10.20;79.51
11499;BME280;5806;48.748;9.278;2023-05-02T01:30:17;101328.23;;;10.51;79.35
11499;BME280;5806;48.748;9.278;2023-05-02T01:32:47;101328.82;;;10.53;80.03
11499;BME280;5806;48.748;9.278;2023-05-02T01:35:17;101321.83;;;10.57;79.64
11499;BME280;5806;48.748;9.278;2023-05-02T01:37:47;101335.75;;;10.74;80.14
11499;BME280;5806;48.748;9.278;2023-05-02T01:40:18;101341.84;;;10.76;80.39
11499;BME280;5806;48.748;9.278;2023-05-02T01:42:49;101346.38;;;10.91;80.19
11499;BME280;5806;48.748;9.278;2023-05-02T01:45:19;101353.38;;;11.05;80.08
11499;BME280;5806;48.748;9.278;2023-05-02T01:47:48;101348.88;;;11.10;80.14
11499;BME280;5806;48.748;9.278;2023-05-02T01:50:21;101350.09;;;11.05;80.33
11499;BME280;5806;48.748;9.278;2023-05-02T01:52:50;101352.05;;;11.16;79.61
11499;BME280;5806;48.748;9.278;2023-05-02T01:55:20;101352.34;;;11.17;79.30
11499;BME280;5806;48.748;9.278;2023-05-02T01:57:49;101351.14;;;11.13;79.62
11499;BME280;5806;48.748;9.278;2023-05-02T02:00:18;101352.19;;;11.21;79.44
11499;BME280;5806;48.748;9.278;2023-05-02T02:02:49;101359.03;;;11.21;79.49
11499;BME280;5806;48.748;9.278;2023-05-02T02:05:18;101362.42;;;11.14;80.19
11499;BME280;5806;48.748;9.278;2023-05-02T02:07:46;101367.48;;;11.20;79.85
11499;BME280;5806;48.748;9.278;2023-05-02T02:10:14;101369.42;;;11.10;80.26
11499;BME280;5806;48.748;9.278;2023-05-02T02:12:53;101372.52;;;11.14;79.98
11499;BME280;5806;48.748;9.278;2023-05-02T02:15:31;101382.80;;;11.18;79.91
11499;BME280;5806;48.748;9.278;2023-05-02T02:18:00;101382.63;;;11.13;80.18
11499;BME280;5806;48.748;9.278;2023-05-02T02:20:29;101391.44;;;11.24;79.89
11499;BME280;5806;48.748;9.278;2023-05-02T02:22:59;101392.63;;;11.37;79.14
11499;BME280;5806;48.748;9.278;2023-05-02T02:25:28;101390.97;;;11.36;79.00
11499;BME280;5806;48.748;9.278;2023-05-02T02:27:56;101394.00;;;11.37;78.79
11499;BME280;5806;48.748;9.278;2023-05-02T02:30:24;101391.75;;;11.34;79.13
11499;BME280;5806;48.748;9.278;2023-05-02T02:32:51;101390.23;;;11.20;79.70
11499;BME280;5806;48.748;9.278;2023-05-02T02:35:19;101393.57;;;11.31;79.53
11499;BME280;5806;48.748;9.278;2023-05-02T02:38:01;101397.88;;;11.39;78.92
11499;BME280;5806;48.748;9.278;2023-05-02T02:43:07;101397.75;;;11.34;79.17
11499;BME280;5806;48.748;9.278;2023-05-02T02:48:49;101413.27;;;11.31;78.75
11499;BME280;5806;48.748;9.278;2023-05-02T02:54:12;101420.62;;;11.48;77.49
11499;BME280;5806;48.748;9.278;2023-05-02T02:56:44;101416.30;;;11.41;77.59
11499;BME280;5806;48.748;9.278;2023-05-02T02:59:27;101420.25;;;11.36;77.75
11499;BME280;5806;48.748;9.278;2023-05-02T03:02:08;101424.08;;;11.26;78.07
11499;BME280;5806;48.748;9.278;2023-05-02T03:04:38;101423.54;;;11.35;78.16
11499;BME280;5806;48.748;9.278;2023-05-02T03:07:07;101423.85;;;11.27;78.52
11499;BME280;5806;48.748;9.278;2023-05-02T03:09:46;101428.93;;;11.24;79.09
11499;BME280;5806;48.748;9.278;2023-05-02T03:12:14;101435.19;;;11.22;78.58
11499;BME280;5806;48.748;9.278;2023-05-02T03:14:42;101434.65;;;11.31;78.24
11499;BME280;5806;48.748;9.278;2023-05-02T03:17:09;101433.78;;;11.40;78.06
11499;BME280;5806;48.748;9.278;2023-05-02T03:19:37;101441.64;;;11.36;78.08
11499;BME280;5806;48.748;9.278;2023-05-02T03:22:05;101438.59;;;11.35;78.50
11499;BME280;5806;48.748;9.278;2023-05-02T03:24:32;101440.05;;;11.29;78.66
11499;BME280;5806;48.748;9.278;2023-05-02T03:27:01;101437.91;;;11.31;78.75
11499;BME280;5806;48.748;9.278;2023-05-02T03:29:29;101445.81;;;11.39;77.96
11499;BME280;5806;48.748;9.278;2023-05-02T03:31:57;101450.77;;;11.39;78.07
11499;BME280;5806;48.748;9.278;2023-05-02T03:34:25;101438.90;;;11.36;78.15
11499;BME280;5806;48.748;9.278;2023-05-02T03:36:54;101448.05;;;11.30;77.75
11499;BME280;5806;48.748;9.278;2023-05-02T03:39:23;101449.41;;;11.30;78.47
11499;BME280;5806;48.748;9.278;2023-05-02T03:41:52;101455.41;;;11.30;79.09
11499;BME280;5806;48.748;9.278;2023-05-02T03:44:19;101454.58;;;11.38;78.28
11499;BME280;5806;48.748;9.278;2023-05-02T03:46:47;101452.07;;;11.37;78.51
11499;BME280;5806;48.748;9.278;2023-05-02T03:49:15;101453.89;;;11.34;79.12
11499;BME280;5806;48.748;9.278;2023-05-02T03:51:44;101458.84;;;11.34;78.79
11499;BME280;5806;48.748;9.278;2023-05-02T03:54:12;101461.73;;;11.30;78.93
11499;BME280;5806;48.748;9.278;2023-05-02T03:56:41;101459.80;;;11.40;77.90
11499;BME280;5806;48.748;9.278;2023-05-02T03:59:09;101460.67;;;11.31;78.78
11499;BME280;5806;48.748;9.278;2023-05-02T04:01:37;101455.70;;;11.31;78.84
11499;BME280;5806;48.748;9.278;2023-05-02T04:04:05;101465.00;;;11.30;78.85
11499;BME280;5806;48.748;9.278;2023-05-02T04:06:35;101464.00;;;11.33;79.22
11499;BME280;5806;48.748;9.278;2023-05-02T04:09:03;101467.50;;;11.40;78.62
11499;BME280;5806;48.748;9.278;2023-05-02T04:11:31;101465.21;;;11.37;78.49
11499;BME280;5806;48.748;9.278;2023-05-02T04:13:58;101464.08;;;11.27;78.88
11499;BME280;5806;48.748;9.278;2023-05-02T04:16:26;101468.11;;;11.33;79.22
11499;BME280;5806;48.748;9.278;2023-05-02T04:18:54;101477.47;;;11.35;79.07
11499;BME280;5806;48.748;9.278;2023-05-02T04:21:22;101472.22;;;11.33;79.34
11499;BME280;5806;48.748;9.278;2023-05-02T04:23:49;101477.63;;;11.31;79.58
11499;BME280;5806;48.748;9.278;2023-05-02T04:26:17;101483.09;;;11.31;79.48
11499;BME280;5806;48.748;9.278;2023-05-02T04:28:46;101484.09;;;11.36;79.44
11499;BME280;5806;48.748;9.278;2023-05-02T04:31:14;101483.23;;;11.36;79.19
11499;BME280;5806;48.748;9.278;2023-05-02T04:33:41;101488.98;;;11.34;79.43
11499;BME280;5806;48.748;9.278;2023-05-02T04:36:09;101487.82;;;11.42;78.44
11499;BME280;5806;48.748;9.278;2023-05-02T04:38:36;101486.30;;;11.46;78.61
11499;BME280;5806;48.748;9.278;2023-05-02T04:41:04;101493.14;;;11.46;78.79
11499;BME280;5806;48.748;9.278;2023-05-02T04:43:32;101496.73;;;11.46;78.98
11499;BME280;5806;48.748;9.278;2023-05-02T04:45:59;101506.32;;;11.46;79.00
11499;BME280;5806;48.748;9.278;2023-05-02T04:48:27;101503.18;;;11.43;78.85
11499;BME280;5806;48.748;9.278;2023-05-02T04:50:54;101512.62;;;11.47;78.97
11499;BME280;5806;48.748;9.278;2023-05-02T04:53:22;101514.98;;;11.43;79.30
11499;BME280;5806;48.748;9.278;2023-05-02T04:55:50;101520.76;;;11.44;79.50
11499;BME280;5806;48.748;9.278;2023-05-02T04:58:17;101521.75;;;11.50;79.39
11499;BME280;5806;48.748;9.278;2023-05-02T05:00:45;101514.83;;;11.47;79.42
11499;BME280;5806;48.748;9.278;2023-05-02T05:03:12;101516.50;;;11.48;79.34
11499;BME280;5806;48.748;9.278;2023-05-02T05:05:40;101526.08;;;11.57;79.24
11499;BME280;5806;48.748;9.278;2023-05-02T05:08:08;101523.72;;;11.52;79.45
11499;BME280;5806;48.748;9.278;2023-05-02T05:10:35;101526.25;;;11.62;78.75
11499;BME280;5806;48.748;9.278;2023-05-02T05:13:05;101529.44;;;11.59;78.87
11499;BME280;5806;48.748;9.278;2023-05-02T05:15:32;101530.48;;;11.58;79.26
11499;BME280;5806;48.748;9.278;2023-05-02T05:18:00;101536.22;;;11.57;79.20
11499;BME280;5806;48.748;9.278;2023-05-02T05:20:28;101540.48;;;11.53;79.38
11499;BME280;5806;48.748;9.278;2023-05-02T05:22:56;101540.16;;;11.52;79.69
11499;BME280;5806;48.748;9.278;2023-05-02T05:25:26;101546.50;;;11.61;78.87
11499;BME280;5806;48.748;9.278;2023-05-02T05:27:54;101551.77;;;11.63;79.08
11499;BME280;5806;48.748;9.278;2023-05-02T05:30:24;101556.41;;;11.71;78.52
11499;BME280;5806;48.748;9.278;2023-05-02T05:32:53;101556.56;;;11.67;78.62
11499;BME280;5806;48.748;9.278;2023-05-02T05:35:20;101561.12;;;11.64;79.10
11499;BME280;5806;48.748;9.278;2023-05-02T05:37:48;101562.27;;;11.66;78.91
11499;BME280;5806;48.748;9.278;2023-05-02T05:40:15;101569.34;;;11.64;79.26
11499;BME280;5806;48.748;9.278;2023-05-02T05:42:43;101576.42;;;11.63;79.64
11499;BME280;5806;48.748;9.278;2023-05-02T05:45:10;101577.91;;;11.59;79.47
11499;BME280;5806;48.748;9.278;2023-05-02T05:47:38;101576.34;;;11.60;79.57
11499;BME280;5806;48.748;9.278;2023-05-02T05:50:07;101583.27;;;11.72;78.92
11499;BME280;5806;48.748;9.278;2023-05-02T05:52:34;101587.53;;;11.68;79.47
11499;BME280;5806;48.748;9.278;2023-05-02T05:55:03;101593.48;;;11.74;79.15
11499;BME280;5806;48.748;9.278;2023-05-02T05:57:31;101591.18;;;11.80;78.66
11499;BME280;5806;48.748;9.278;2023-05-02T05:59:58;101596.30;;;11.76;78.73
11499;BME280;5806;48.748;9.278;2023-05-02T06:02:26;101601.98;;;11.57;79.69
11499;BME280;5806;48.748;9.278;2023-05-02T06:04:53;101598.47;;;11.50;80.08
11499;BME280;5806;48.748;9.278;2023-05-02T06:07:21;101605.61;;;11.60;80.38
11499;BME280;5806;48.748;9.278;2023-05-02T06:09:48;101610.08;;;11.70;80.57
11499;BME280;5806;48.748;9.278;2023-05-02T06:12:16;101610.92;;;11.79;79.96
11499;BME280;5806;48.748;9.278;2023-05-02T06:14:43;101609.70;;;11.75;80.24
11499;BME280;5806;48.748;9.278;2023-05-02T06:17:10;101608.55;;;11.83;79.81
11499;BME280;5806;48.748;9.278;2023-05-02T06:19:38;101610.21;;;11.84;79.82
11499;BME280;5806;48.748;9.278;2023-05-02T06:22:05;101610.52;;;11.76;80.21
11499;BME280;5806;48.748;9.278;2023-05-02T06:24:33;101611.89;;;11.67;80.44
11499;BME280;5806;48.748;9.278;2023-05-02T06:27:00;101618.92;;;11.81;80.40
11499;BME280;5806;48.748;9.278;2023-05-02T06:29:28;101623.63;;;11.83;80.34
11499;BME280;5806;48.748;9.278;2023-05-02T06:31:55;101627.66;;;11.80;80.20
11499;BME280;5806;48.748;9.278;2023-05-02T06:34:23;101625.06;;;11.85;80.45
11499;BME280;5806;48.748;9.278;2023-05-02T06:36:54;101631.48;;;11.79;80.39
11499;BME280;5806;48.748;9.278;2023-05-02T06:39:22;101634.30;;;11.73;80.59
11499;BME280;5806;48.748;9.278;2023-05-02T06:41:50;101633.89;;;11.78;81.38
11499;BME280;5806;48.748;9.278;2023-05-02T06:44:17;101644.48;;;11.75;81.14
11499;BME280;5806;48.748;9.278;2023-05-02T06:46:44;101647.00;;;11.76;80.63
11499;BME280;5806;48.748;9.278;2023-05-02T06:49:12;101646.52;;;11.61;81.16
11499;BME280;5806;48.748;9.278;2023-05-02T06:51:39;101654.30;;;11.64;81.77
11499;BME280;5806;48.748;9.278;2023-05-02T06:54:07;101654.48;;;11.54;81.85
11499;BME280;5806;48.748;9.278;2023-05-02T06:56:35;101655.45;;;11.66;81.67
11499;BME280;5806;48.748;9.278;2023-05-02T06:59:02;101668.00;;;11.64;82.05
11499;BME280;5806;48.748;9.278;2023-05-02T07:01:30;101663.52;;;11.79;81.23
11499;BME280;5806;48.748;9.278;2023-05-02T07:03:58;101675.62;;;11.89;80.83
11499;BME280;5806;48.748;9.278;2023-05-02T07:06:25;101677.30;;;11.72;82.19
11499;BME280;5806;48.748;9.278;2023-05-02T07:08:53;101678.08;;;11.79;82.10
11499;BME280;5806;48.748;9.278;2023-05-02T07:11:20;101681.78;;;11.76;81.91
11499;BME280;5806;48.748;9.278;2023-05-02T07:13:49;101690.70;;;11.80;82.24
11499;BME280;5806;48.748;9.278;2023-05-02T07:16:17;101686.52;;;11.87;81.61
11499;BME280;5806;48.748;9.278;2023-05-02T07:18:45;101689.26;;;11.87;81.27
11499;BME280;5806;48.748;9.278;2023-05-02T07:21:12;101694.66;;;11.75;81.56
11499;BME280;5806;48.748;9.278;2023-05-02T07:23:40;101695.66;;;11.99;80.72
11499;BME280;5806;48.748;9.278;2023-05-02T07:26:07;101706.41;;;12.00;80.90
11499;BME280;5806;48.748;9.278;2023-05-02T07:28:35;101700.41;;;12.01;81.43
11499;BME280;5806;48.748;9.278;2023-05-02T07:31:02;101706.62;;;12.08;80.29
11499;BME280;5806;48.748;9.278;2023-05-02T07:33:30;101710.45;;;11.98;81.38
11499;BME280;5806;48.748;9.278;2023-05-02T07:35:57;101724.60;;;11.86;81.50
11499;BME280;5806;48.748;9.278;2023-05-02T07:38:26;101725.10;;;11.67;79.70
11499;BME280;5806;48.748;9.278;2023-05-02T07:40:58;101724.87;;;11.53;78.46
11499;BME280;5806;48.748;9.278;2023-05-02T07:43:26;101722.96;;;11.45;78.85
11499;BME280;5806;48.748;9.278;2023-05-02T07:45:55;101732.27;;;11.53;78.12
11499;BME280;5806;48.748;9.278;2023-05-02T07:48:22;101730.48;;;11.49;77.59
11499;BME280;5806;48.748;9.278;2023-05-02T07:50:49;101733.09;;;11.53;77.32
11499;BME280;5806;48.748;9.278;2023-05-02T07:53:17;101738.10;;;11.63;75.55
11499;BME280;5806;48.748;9.278;2023-05-02T07:55:44;101740.33;;;11.72;76.74
11499;BME280;5806;48.748;9.278;2023-05-02T07:58:12;101743.17;;;11.44;76.06
11499;BME280;5806;48.748;9.278;2023-05-02T08:00:39;101751.03;;;11.49;75.40
11499;BME280;5806;48.748;9.278;2023-05-02T08:03:07;101744.34;;;11.54;76.83
11499;BME280;5806;48.748;9.278;2023-05-02T08:05:34;101749.56;;;11.78;76.45
11499;BME280;5806;48.748;9.278;2023-05-02T08:08:02;101750.30;;;11.76;76.98
11499;BME280;5806;48.748;9.278;2023-05-02T08:10:29;101754.97;;;11.75;75.81
11499;BME280;5806;48.748;9.278;2023-05-02T08:12:57;101751.86;;;11.81;76.07
11499;BME280;5806;48.748;9.278;2023-05-02T08:15:24;101760.88;;;11.97;76.03
11499;BME280;5806;48.748;9.278;2023-05-02T08:17:52;101758.80;;;11.92;75.74
11499;BME280;5806;48.748;9.278;2023-05-02T08:20:19;101759.80;;;11.98;76.97
11499;BME280;5806;48.748;9.278;2023-05-02T08:22:48;101762.92;;;12.01;76.16
11499;BME280;5806;48.748;9.278;2023-05-02T08:25:16;101765.81;;;12.06;75.66
11499;BME280;5806;48.748;9.278;2023-05-02T08:27:44;101768.11;;;12.09;75.27
11499;BME280;5806;48.748;9.278;2023-05-02T08:30:12;101773.97;;;12.04;75.38
11499;BME280;5806;48.748;9.278;2023-05-02T08:32:39;101778.86;;;12.11;75.11
11499;BME280;5806;48.748;9.278;2023-05-02T08:35:07;101777.86;;;12.14;73.96
11499;BME280;5806;48.748;9.278;2023-05-02T08:37:35;101786.22;;;11.92;73.61
11499;BME280;5806;48.748;9.278;2023-05-02T08:40:02;101781.60;;;12.20;74.23
11499;BME280;5806;48.748;9.278;2023-05-02T08:42:32;101784.72;;;12.14;72.58
11499;BME280;5806;48.748;9.278;2023-05-02T08:45:00;101785.16;;;12.02;73.19
11499;BME280;5806;48.748;9.278;2023-05-02T08:47:29;101784.84;;;11.92;73.49
11499;BME280;5806;48.748;9.278;2023-05-02T08:49:58;101787.09;;;12.11;74.81
11499;BME280;5806;48.748;9.278;2023-05-02T08:52:26;101789.67;;;12.06;73.44
11499;BME280;5806;48.748;9.278;2023-05-02T08:54:55;101796.77;;;12.13;73.00
11499;BME280;5806;48.748;9.278;2023-05-02T08:57:22;101796.39;;;12.28;72.85
11499;BME280;5806;48.748;9.278;2023-05-02T08:59:50;101796.39;;;12.28;73.37
11499;BME280;5806;48.748;9.278;2023-05-02T09:04:51;101794.42;;;12.35;71.88
11499;BME280;5806;48.748;9.278;2023-05-02T09:07:26;101799.58;;;12.25;70.72
11499;BME280;5806;48.748;9.278;2023-05-02T09:09:53;101805.77;;;12.20;72.40
11499;BME280;5806;48.748;9.278;2023-05-02T09:12:24;101811.10;;;12.15;72.35
11499;BME280;5806;48.748;9.278;2023-05-02T09:15:13;101815.89;;;12.20;71.46
11499;BME280;5806;48.748;9.278;2023-05-02T09:17:43;101824.80;;;11.82;71.85
11499;BME280;5806;48.748;9.278;2023-05-02T09:20:15;101834.69;;;11.52;71.53
11499;BME280;5806;48.748;9.278;2023-05-02T09:22:51;101837.60;;;11.63;72.54
11499;BME280;5806;48.748;9.278;2023-05-02T09:25:22;101839.58;;;11.65;72.64
11499;BME280;5806;48.748;9.278;2023-05-02T09:27:54;101843.38;;;11.64;73.25
11499;BME280;5806;48.748;9.278;2023-05-02T09:30:25;101849.94;;;11.63;73.06
11499;BME280;5806;48.748;9.278;2023-05-02T09:32:53;101853.56;;;11.51;73.08
11499;BME280;5806;48.748;9.278;2023-05-02T09:35:23;101858.84;;;11.68;71.25
11499;BME280;5806;48.748;9.278;2023-05-02T09:37:55;101862.88;;;11.81;72.34
11499;BME280;5806;48.748;9.278;2023-05-02T09:40:23;101870.55;;;11.81;72.15
11499;BME280;5806;48.748;9.278;2023-05-02T09:42:52;101867.40;;;11.69;69.92
11499;BME280;5806;48.748;9.278;2023-05-02T09:45:22;101865.92;;;11.82;68.63
11499;BME280;5806;48.748;9.278;2023-05-02T09:47:50;101874.25;;;11.69;69.16
11499;BME280;5806;48.748;9.278;2023-05-02T09:50:35;101875.37;;;11.70;69.31
11499;BME280;5806;48.748;9.278;2023-05-02T09:53:05;101881.45;;;11.63;68.42
11499;BME280;5806;48.748;9.278;2023-05-02T09:55:32;101879.98;;;11.76;68.35
11499;BME280;5806;48.748;9.278;2023-05-02T09:58:00;101885.42;;;11.67;68.29
11499;BME280;5806;48.748;9.278;2023-05-02T10:00:41;101891.78;;;11.61;68.95
11499;BME280;5806;48.748;9.278;2023-05-02T10:03:10;101894.25;;;11.69;68.29
11499;BME280;5806;48.748;9.278;2023-05-02T10:05:39;101895.52;;;11.82;70.17
11499;BME280;5806;48.748;9.278;2023-05-02T10:08:07;101899.95;;;11.99;69.20
11499;BME280;5806;48.748;9.278;2023-05-02T10:10:37;101900.08;;;11.95;67.95
11499;BME280;5806;48.748;9.278;2023-05-02T10:13:06;101901.75;;;12.11;67.43
11499;BME280;5806;48.748;9.278;2023-05-02T10:15:38;101895.11;;;12.10;68.51
11499;BME280;5806;48.748;9.278;2023-05-02T10:18:07;101896.59;;;12.21;67.46
11499;BME280;5806;48.748;9.278;2023-05-02T10:20:37;101901.05;;;12.31;67.36
11499;BME280;5806;48.748;9.278;2023-05-02T10:23:07;101898.46;;;12.36;66.94
11499;BME280;5806;48.748;9.278;2023-05-02T10:25:34;101893.13;;;12.50;66.44
11499;BME280;5806;48.748;9.278;2023-05-02T10:28:03;101899.17;;;12.50;65.92
11499;BME280;5806;48.748;9.278;2023-05-02T10:30:31;101902.58;;;12.36;65.54
11499;BME280;5806;48.748;9.278;2023-05-02T10:33:00;101897.39;;;12.46;65.43
11499;BME280;5806;48.748;9.278;2023-05-02T10:35:29;101908.14;;;12.39;64.26
11499;BME280;5806;48.748;9.278;2023-05-02T10:37:58;101899.84;;;12.45;63.73
11499;BME280;5806;48.748;9.278;2023-05-02T10:40:27;101910.51;;;12.35;63.77
11499;BME280;5806;48.748;9.278;2023-05-02T10:42:55;101906.42;;;12.29;64.36
11499;BME280;5806;48.748;9.278;2023-05-02T10:45:36;101907.92;;;12.16;64.03
11499;BME280;5806;48.748;9.278;2023-05-02T10:48:20;101905.77;;;12.42;64.88
11499;BME280;5806;48.748;9.278;2023-05-02T10:50:57;101906.48;;;12.47;64.18
11499;BME280;5806;48.748;9.278;2023-05-02T10:53:32;101898.03;;;12.57;64.27
11499;BME280;5806;48.748;9.278;2023-05-02T10:56:18;101900.17;;;12.91;62.67
11499;BME280;5806;48.748;9.278;2023-05-02T10:58:51;101895.31;;;12.75;63.33
11499;BME280;5806;48.748;9.278;2023-05-02T11:04:00;101903.27;;;13.01;61.91
11499;BME280;5806;48.748;9.278;2023-05-02T11:06:30;101904.47;;;12.96;62.09
11499;BME280;5806;48.748;9.278;2023-05-02T11:11:53;101905.66;;;12.91;62.05
11499;BME280;5806;48.748;9.278;2023-05-02T11:24:50;101908.19;;;12.93;62.14
11499;BME280;5806;48.748;9.278;2023-05-02T11:30:35;101909.16;;;12.62;60.90
11499;BME280;5806;48.748;9.278;2023-05-02T11:35:25;101898.89;;;13.21;61.02
11499;BME280;5806;48.748;9.278;2023-05-02T11:37:57;101903.20;;;12.99;60.12
11499;BME280;5806;48.748;9.278;2023-05-02T11:40:25;101896.61;;;12.82;60.57
11499;BME280;5806;48.748;9.278;2023-05-02T11:42:55;101900.87;;;12.87;61.21
11499;BME280;5806;48.748;9.278;2023-05-02T11:45:36;101903.79;;;13.01;61.41
11499;BME280;5806;48.748;9.278;2023-05-02T11:48:06;101908.11;;;12.90;61.21
11499;BME280;5806;48.748;9.278;2023-05-02T11:50:48;101909.06;;;13.02;61.61
11499;BME280;5806;48.748;9.278;2023-05-02T11:53:22;101917.33;;;12.69;61.94
11499;BME280;5806;48.748;9.278;2023-05-02T11:55:58;101914.19;;;12.47;60.14
11499;BME280;5806;48.748;9.278;2023-05-02T11:58:23;101915.80;;;12.73;60.78
11499;BME280;5806;48.748;9.278;2023-05-02T12:00:52;101919.10;;;12.72;60.45
11499;BME280;5806;48.748;9.278;2023-05-02T12:03:22;101914.61;;;12.78;59.47
11499;BME280;5806;48.748;9.278;2023-05-02T12:05:49;101921.25;;;13.15;60.38
11499;BME280;5806;48.748;9.278;2023-05-02T12:08:25;101919.50;;;12.94;58.36
11499;BME280;5806;48.748;9.278;2023-05-02T12:10:54;101922.14;;;12.73;57.61
11499;BME280;5806;48.748;9.278;2023-05-02T12:13:24;101915.76;;;12.79;58.96
11499;BME280;5806;48.748;9.278;2023-05-02T12:15:53;101919.70;;;12.83;57.23
11499;BME280;5806;48.748;9.278;2023-05-02T12:18:22;101923.08;;;13.30;57.80
11499;BME280;5806;48.748;9.278;2023-05-02T12:20:51;101921.17;;;13.69;55.19
11499;BME280;5806;48.748;9.278;2023-05-02T12:23:21;101921.20;;;13.51;55.42
11499;BME280;5806;48.748;9.278;2023-05-02T12:25:49;101919.66;;;13.26;53.71
11499;BME280;5806;48.748;9.278;2023-05-02T12:28:18;101938.95;;;13.19;56.48
11499;BME280;5806;48.748;9.278;2023-05-02T12:30:47;101941.22;;;12.86;56.85
11499;BME280;5806;48.748;9.278;2023-05-02T12:33:16;101942.59;;;12.86;57.44
11499;BME280;5806;48.748;9.278;2023-05-02T12:35:44;101945.81;;;12.92;57.98
11499;BME280;5806;48.748;9.278;2023-05-02T12:38:16;101947.63;;;12.71;56.48
11499;BME280;5806;48.748;9.278;2023-05-02T12:40:49;101947.16;;;12.83;57.61
11499;BME280;5806;48.748;9.278;2023-05-02T12:43:18;101947.63;;;12.89;56.51
11499;BME280;5806;48.748;9.278;2023-05-02T12:45:47;101951.30;;;12.92;55.98
11499;BME280;5806;48.748;9.278;2023-05-02T12:48:26;101948.67;;;13.22;57.23
11499;BME280;5806;48.748;9.278;2023-05-02T12:50:54;101946.52;;;13.24;56.05
11499;BME280;5806;48.748;9.278;2023-05-02T12:53:44;101945.30;;;13.20;54.26
11499;BME280;5806;48.748;9.278;2023-05-02T12:56:10;101958.73;;;13.28;56.70
11499;BME280;5806;48.748;9.278;2023-05-02T12:58:42;101966.89;;;13.34;56.02
11499;BME280;5806;48.748;9.278;2023-05-02T13:01:11;101964.67;;;13.43;53.42
11499;BME280;5806;48.748;9.278;2023-05-02T13:03:39;101967.42;;;13.43;56.80
11499;BME280;5806;48.748;9.278;2023-05-02T13:06:07;101962.02;;;13.36;53.89
11499;BME280;5806;48.748;9.278;2023-05-02T13:08:35;101970.62;;;13.40;56.50
11499;BME280;5806;48.748;9.278;2023-05-02T13:11:03;101965.02;;;13.55;55.17
11499;BME280;5806;48.748;9.278;2023-05-02T13:13:31;101964.50;;;13.56;52.71
11499;BME280;5806;48.748;9.278;2023-05-02T13:16:00;101971.90;;;13.64;52.63
11499;BME280;5806;48.748;9.278;2023-05-02T13:18:27;101974.16;;;13.76;53.61
11499;BME280;5806;48.748;9.278;2023-05-02T13:20:55;101967.18;;;13.53;51.57
11499;BME280;5806;48.748;9.278;2023-05-02T13:23:22;101970.54;;;13.46;52.44
11499;BME280;5806;48.748;9.278;2023-05-02T13:25:50;101976.14;;;13.31;51.99
11499;BME280;5806;48.748;9.278;2023-05-02T13:28:17;101978.41;;;13.25;54.26
11499;BME280;5806;48.748;9.278;2023-05-02T13:30:44;101979.80;;;13.07;53.08
11499;BME280;5806;48.748;9.278;2023-05-02T13:33:12;101982.00;;;13.34;53.83
11499;BME280;5806;48.748;9.278;2023-05-02T13:35:39;101978.35;;;13.40;53.01
11499;BME280;5806;48.748;9.278;2023-05-02T13:38:07;101977.50;;;13.40;53.23
11499;BME280;5806;48.748;9.278;2023-05-02T13:40:34;101982.63;;;13.36;49.91
11499;BME280;5806;48.748;9.278;2023-05-02T13:43:02;101980.39;;;13.45;51.70
11499;BME280;5806;48.748;9.278;2023-05-02T13:45:29;101978.58;;;13.39;51.69
11499;BME280;5806;48.748;9.278;2023-05-02T13:47:56;101982.91;;;13.46;52.38
11499;BME280;5806;48.748;9.278;2023-05-02T13:50:24;101976.57;;;13.55;51.26
11499;BME280;5806;48.748;9.278;2023-05-02T13:52:52;101979.82;;;13.63;52.67
11499;BME280;5806;48.748;9.278;2023-05-02T13:55:19;101984.02;;;13.66;51.55
11499;BME280;5806;48.748;9.278;2023-05-02T13:57:47;101989.65;;;13.32;50.73